Time;durP1;ratioP1;P1;durP2;ratioP2;P2;SDS_P1;SDS_P2;PMS_P1;PMS_P2;Temp;Humidity;BMP_temperature;BMP_pressure;BME280_temperature;BME280_humidity;BME280_pressure;Samples;Min_cycle;Max_cycle;Signal;HPM_P1;HPM_P2
2023/11/02 00:00:44;;;;;;;3.95;0.88;;;11.70;99.90;;;;;;4846352;29;20185;-87
2023/11/02 00:03:25;;;;;;;1.65;0.70;;;11.80;99.90;;;;;;4829197;29;20207;-89
2023/11/02 00:05:56;;;;;;;1.73;0.60;;;11.70;99.90;;;;;;4829674;29;20217;-88
2023/11/02 00:08:23;;;;;;;2.45;0.55;;;11.70;99.90;;;;;;4829871;29;20221;-89
2023/11/02 00:10:49;;;;;;;4.38;0.90;;;11.60;99.90;;;;;;4829491;29;20188;-88
2023/11/02 00:13:27;;;;;;;2.38;0.50;;;11.60;99.90;;;;;;4829380;29;20193;-86
2023/11/02 00:15:53;;;;;;;1.50;0.60;;;11.60;99.90;;;;;;4829052;29;20320;-86
2023/11/02 00:18:19;;;;;;;1.75;0.55;;;11.50;99.90;;;;;;4829185;29;20200;-85
2023/11/02 00:20:48;;;;;;;2.72;0.82;;;11.50;99.90;;;;;;4845542;29;20173;-85
2023/11/02 00:23:30;;;;;;;2.65;0.73;;;11.50;99.90;;;;;;4845723;29;20526;-86
2023/11/02 00:25:57;;;;;;;2.83;0.85;;;11.40;99.90;;;;;;4828790;29;20185;-87
2023/11/02 00:28:23;;;;;;;2.03;0.60;;;11.40;99.90;;;;;;4829114;29;20273;-87
2023/11/02 00:30:51;;;;;;;1.33;0.70;;;11.40;99.90;;;;;;4845328;29;20178;-87
2023/11/02 00:33:18;;;;;;;3.05;0.98;;;11.40;99.90;;;;;;4829231;29;20272;-87
2023/11/02 00:35:45;;;;;;;5.10;0.55;;;11.40;99.90;;;;;;4829252;29;20190;-84
2023/11/02 00:38:16;;;;;;;1.08;0.60;;;11.40;99.90;;;;;;4845233;29;20214;-86
2023/11/02 00:40:42;;;;;;;1.55;0.68;;;11.30;99.90;;;;;;4829154;29;20217;-86
2023/11/02 00:43:08;;;;;;;1.38;0.63;;;11.30;99.90;;;;;;4829270;29;20246;-86
2023/11/02 00:45:39;;;;;;;1.75;0.68;;;11.20;99.90;;;;;;4845473;29;20191;-87
2023/11/02 00:48:13;;;;;;;3.75;0.90;;;11.10;99.90;;;;;;4837843;29;20269;-87
2023/11/02 00:51:20;;;;;;;2.63;0.55;;;11.10;99.90;;;;;;4828538;29;20193;-85
2023/11/02 00:53:59;;;;;;;1.55;0.77;;;11.10;99.90;;;;;;4845065;29;20181;-86
2023/11/02 00:56:36;;;;;;;4.00;0.90;;;11.00;99.90;;;;;;4828735;29;20196;-86
2023/11/02 00:59:04;;;;;;;3.05;0.95;;;11.00;99.90;;;;;;4844930;29;20271;-87
2023/11/02 01:01:31;;;;;;;1.05;0.57;;;11.00;99.90;;;;;;4828403;29;20192;-86
2023/11/02 01:04:02;;;;;;;6.03;0.98;;;10.90;99.90;;;;;;4828620;29;20211;-87
2023/11/02 01:06:30;;;;;;;2.25;0.70;;;10.90;99.90;;;;;;4828310;29;20217;-86
2023/11/02 01:08:59;;;;;;;2.72;0.55;;;10.80;99.90;;;;;;4844963;29;20225;-87
2023/11/02 01:11:31;;;;;;;4.30;0.85;;;10.90;99.90;;;;;;4828488;29;20193;-86
2023/11/02 01:13:58;;;;;;;3.28;0.60;;;10.80;99.90;;;;;;4828208;29;20545;-87
2023/11/02 01:16:26;;;;;;;2.45;0.70;;;10.70;99.90;;;;;;4844721;29;20291;-86
2023/11/02 01:18:51;;;;;;;3.70;0.80;;;10.60;99.90;;;;;;4844903;29;20192;-87
2023/11/02 01:21:17;;;;;;;4.30;1.15;;;10.70;99.90;;;;;;4828306;29;20215;-87
2023/11/02 01:23:43;;;;;;;2.50;0.80;;;10.60;99.90;;;;;;4844781;29;20189;-88
2023/11/02 01:26:39;;;;;;;4.82;0.80;;;10.50;99.90;;;;;;4828519;29;20232;-89
2023/11/02 01:29:07;;;;;;;3.13;0.80;;;10.50;99.90;;;;;;4828524;29;20197;-87
2023/11/02 01:31:36;;;;;;;2.97;1.08;;;10.50;99.90;;;;;;4844680;29;20181;-87
2023/11/02 01:34:03;;;;;;;2.95;0.90;;;10.50;99.90;;;;;;4844691;29;20185;-86
2023/11/02 01:36:35;;;;;;;1.48;0.60;;;10.40;99.90;;;;;;4826778;29;20186;-87
2023/11/02 01:39:09;;;;;;;2.33;1.00;;;10.30;99.90;;;;;;4844347;29;20193;-88
2023/11/02 01:41:43;;;;;;;2.20;0.80;;;10.30;99.90;;;;;;4827678;29;20532;-87
2023/11/02 01:44:19;;;;;;;2.33;0.50;;;10.30;99.90;;;;;;4828290;29;20189;-88
2023/11/02 01:47:20;;;;;;;3.67;0.80;;;10.30;99.90;;;;;;4844102;29;20184;-85
2023/11/02 01:49:51;;;;;;;2.67;0.55;;;10.30;99.90;;;;;;4827927;29;20571;-87
2023/11/02 01:52:32;;;;;;;3.88;0.70;;;10.30;99.90;;;;;;4828216;29;20200;-87
2023/11/02 01:55:22;;;;;;;4.93;0.80;;;10.20;99.90;;;;;;4827933;29;20225;-86
2023/11/02 01:58:00;;;;;;;3.92;0.95;;;10.20;99.90;;;;;;4844091;29;20188;-88
2023/11/02 02:00:37;;;;;;;3.25;0.60;;;10.20;99.90;;;;;;4844397;29;20221;-87
2023/11/02 02:03:13;;;;;;;1.27;0.70;;;10.20;99.90;;;;;;4843902;29;20522;-88
2023/11/02 02:05:55;;;;;;;1.55;0.60;;;10.20;99.90;;;;;;4843638;29;20191;-88
2023/11/02 02:08:48;;;;;;;1.13;0.70;;;10.20;99.90;;;;;;4843793;29;20252;-88
2023/11/02 02:11:33;;;;;;;3.45;0.90;;;10.20;99.90;;;;;;4821067;29;20197;-86
2023/11/02 02:14:11;;;;;;;4.43;0.70;;;10.20;99.90;;;;;;4824481;29;20225;-88
2023/11/02 02:16:53;;;;;;;2.72;0.73;;;10.20;99.90;;;;;;4824809;29;20189;-87
2023/11/02 02:19:50;;;;;;;4.22;0.70;;;10.10;99.90;;;;;;4820288;29;20178;-87
2023/11/02 02:22:20;;;;;;;3.13;0.60;;;10.10;99.90;;;;;;4824605;29;20189;-86
2023/11/02 02:25:06;;;;;;;9.00;1.00;;;10.10;99.90;;;;;;4824778;29;20515;-87
2023/11/02 02:27:35;;;;;;;3.88;0.82;;;10.10;99.90;;;;;;4824477;29;20214;-86
2023/11/02 02:30:45;;;;;;;3.17;0.65;;;10.10;99.90;;;;;;4825767;29;20194;-87
2023/11/02 02:33:38;;;;;;;3.85;0.80;;;10.10;99.90;;;;;;4809676;29;20206;-87
2023/11/02 02:36:21;;;;;;;4.70;0.73;;;10.00;99.90;;;;;;4816698;29;20273;-88
2023/11/02 02:38:52;;;;;;;2.88;0.60;;;10.00;99.90;;;;;;4824183;29;20277;-88
2023/11/02 02:41:21;;;;;;;3.13;0.88;;;10.00;99.90;;;;;;4824410;29;20186;-87
2023/11/02 02:43:51;;;;;;;3.15;0.80;;;9.90;99.90;;;;;;4824300;29;20202;-88
2023/11/02 02:46:23;;;;;;;2.63;0.55;;;9.80;99.90;;;;;;4824517;29;20256;-89
2023/11/02 02:48:49;;;;;;;1.95;0.70;;;9.80;99.90;;;;;;4824113;29;20214;-88
2023/11/02 02:51:16;;;;;;;2.90;0.60;;;9.70;99.90;;;;;;4825380;29;20186;-87
2023/11/02 02:53:45;;;;;;;1.48;0.77;;;9.70;99.90;;;;;;4824199;29;20962;-88
2023/11/02 02:56:13;;;;;;;3.67;0.90;;;9.60;99.90;;;;;;4825690;29;20197;-86
2023/11/02 02:58:51;;;;;;;3.42;1.13;;;9.60;99.90;;;;;;4824459;29;20185;-88
2023/11/02 03:01:19;;;;;;;4.18;0.90;;;9.50;99.90;;;;;;4824399;29;20189;-86
2023/11/02 03:03:47;;;;;;;2.17;0.63;;;9.40;99.90;;;;;;4823971;29;20203;-87
2023/11/02 03:06:19;;;;;;;6.25;0.98;;;9.40;99.90;;;;;;4824826;29;20319;-86
2023/11/02 03:08:47;;;;;;;3.80;0.70;;;9.40;99.90;;;;;;4824990;29;20218;-87
2023/11/02 03:11:15;;;;;;;7.68;0.88;;;9.50;99.90;;;;;;4824028;29;20209;-87
2023/11/02 03:13:43;;;;;;;2.08;0.77;;;9.50;99.90;;;;;;4824393;29;20194;-87
2023/11/02 03:16:14;;;;;;;2.38;0.70;;;9.40;99.90;;;;;;4843365;29;20189;-86
2023/11/02 03:18:40;;;;;;;2.95;0.90;;;9.40;99.90;;;;;;4826874;29;20193;-86
2023/11/02 03:21:06;;;;;;;2.33;0.65;;;9.30;99.90;;;;;;4835790;29;20185;-88
2023/11/02 03:24:04;;;;;;;2.58;0.80;;;9.30;99.90;;;;;;4826965;29;20200;-87
2023/11/02 03:26:39;;;;;;;1.25;0.60;;;9.30;99.90;;;;;;4808047;29;20197;-85
2023/11/02 03:29:19;;;;;;;4.00;0.70;;;9.30;99.90;;;;;;4826522;29;20269;-88
2023/11/02 03:31:57;;;;;;;2.60;0.98;;;9.30;99.90;;;;;;4843479;29;20204;-86
2023/11/02 03:34:26;;;;;;;3.20;0.70;;;9.30;99.90;;;;;;4826941;29;20528;-86
2023/11/02 03:37:16;;;;;;;2.58;0.90;;;9.20;99.90;;;;;;4826377;29;20189;-87
2023/11/02 03:40:29;;;;;;;2.90;0.80;;;9.20;99.90;;;;;;4826816;29;20213;-86
2023/11/02 03:43:07;;;;;;;5.78;0.65;;;9.20;99.90;;;;;;4826678;29;20522;-87
2023/11/02 03:48:39;;;;;;;1.58;0.85;;;9.10;99.90;;;;;;4832779;29;20264;-87
2023/11/02 03:51:24;;;;;;;3.70;0.73;;;9.10;99.90;;;;;;4827360;29;20197;-85
2023/11/02 03:53:55;;;;;;;1.90;0.70;;;9.10;99.90;;;;;;4826978;29;20190;-85
2023/11/02 03:56:39;;;;;;;3.33;0.80;;;9.00;99.90;;;;;;4843483;29;20188;-88
2023/11/02 03:59:43;;;;;;;1.60;1.00;;;9.10;99.90;;;;;;4827735;29;20322;-85
2023/11/02 04:02:23;;;;;;;1.58;0.50;;;9.10;99.90;;;;;;4830122;29;20240;-86
2023/11/02 04:05:00;;;;;;;2.60;0.95;;;9.10;99.90;;;;;;4846632;29;20213;-87
2023/11/02 04:08:01;;;;;;;2.63;0.80;;;9.10;99.90;;;;;;4830089;29;20240;-87
2023/11/02 04:10:29;;;;;;;2.20;0.80;;;9.00;99.90;;;;;;4832948;29;20208;-87
2023/11/02 04:13:08;;;;;;;2.72;0.65;;;9.00;99.90;;;;;;4846488;29;20336;-87
2023/11/02 04:15:34;;;;;;;2.60;0.80;;;9.00;99.90;;;;;;4830285;29;20189;-85
2023/11/02 04:18:05;;;;;;;6.80;0.95;;;9.00;99.90;;;;;;4829520;29;20293;-86
2023/11/02 04:20:31;;;;;;;2.50;0.90;;;9.00;99.90;;;;;;4830240;29;20200;-86
2023/11/02 04:22:58;;;;;;;6.13;0.88;;;9.00;99.90;;;;;;4829766;29;20185;-87
2023/11/02 04:25:24;;;;;;;2.38;0.85;;;9.00;99.90;;;;;;4830091;29;20197;-87
2023/11/02 04:27:50;;;;;;;3.03;0.70;;;9.10;99.90;;;;;;4830160;29;20282;-88
2023/11/02 04:30:16;;;;;;;1.42;0.60;;;9.10;99.90;;;;;;4830177;29;20644;-87
2023/11/02 04:32:43;;;;;;;1.67;1.02;;;9.10;99.90;;;;;;4829711;29;20193;-87
2023/11/02 04:35:10;;;;;;;4.07;0.80;;;9.10;99.90;;;;;;4829973;29;20193;-87
2023/11/02 04:38:00;;;;;;;0.93;0.60;;;9.20;99.90;;;;;;4829890;29;20277;-84
2023/11/02 04:40:26;;;;;;;2.47;0.68;;;9.20;99.90;;;;;;4830037;29;20189;-87
2023/11/02 04:42:52;;;;;;;1.50;0.70;;;9.20;99.90;;;;;;4829861;29;20200;-86
2023/11/02 04:45:17;;;;;;;2.28;0.90;;;9.30;99.90;;;;;;4829856;29;20189;-89
2023/11/02 04:47:43;;;;;;;5.13;0.82;;;9.30;99.90;;;;;;4845650;29;20688;-87
2023/11/02 04:50:09;;;;;;;2.60;0.73;;;9.30;99.90;;;;;;4829761;29;20193;-87
2023/11/02 04:52:35;;;;;;;2.35;0.65;;;9.30;99.90;;;;;;4829687;29;20193;-85
2023/11/02 04:55:02;;;;;;;4.50;0.90;;;9.30;99.90;;;;;;4829681;29;20181;-86
2023/11/02 04:57:27;;;;;;;3.08;0.80;;;9.30;99.90;;;;;;4829763;29;20193;-87
2023/11/02 04:59:53;;;;;;;2.67;0.63;;;9.30;99.90;;;;;;4829803;29;20254;-86
2023/11/02 05:02:19;;;;;;;2.22;0.77;;;9.30;99.90;;;;;;4829792;29;20503;-86
2023/11/02 05:04:44;;;;;;;4.03;0.80;;;9.30;99.90;;;;;;4829666;29;20197;-85
2023/11/02 05:07:10;;;;;;;3.75;0.60;;;9.20;99.90;;;;;;4845531;29;20224;-85
2023/11/02 05:09:37;;;;;;;3.17;0.70;;;9.20;99.90;;;;;;4845839;29;20189;-87
2023/11/02 05:12:03;;;;;;;2.65;0.80;;;9.30;99.90;;;;;;4829443;29;20200;-87
2023/11/02 05:14:29;;;;;;;2.80;0.80;;;9.30;99.90;;;;;;4845673;29;20530;-83
2023/11/02 05:16:54;;;;;;;1.67;0.95;;;9.20;99.90;;;;;;4828913;29;20192;-87
2023/11/02 05:19:20;;;;;;;2.25;0.98;;;9.30;99.90;;;;;;4829372;29;20676;-87
2023/11/02 05:21:46;;;;;;;4.00;0.90;;;9.30;99.90;;;;;;4829163;29;20190;-87
2023/11/02 05:24:13;;;;;;;1.30;0.70;;;9.30;99.90;;;;;;4829105;29;20197;-87
2023/11/02 05:26:39;;;;;;;3.42;0.85;;;9.30;99.90;;;;;;4829224;29;20193;-85
2023/11/02 05:29:11;;;;;;;4.00;0.80;;;9.30;99.90;;;;;;4845478;29;20307;-86
2023/11/02 05:31:36;;;;;;;7.15;0.98;;;9.30;99.90;;;;;;4829066;29;20205;-87
2023/11/02 05:34:05;;;;;;;1.98;0.80;;;9.30;99.90;;;;;;4829125;29;20286;-86
2023/11/02 05:36:31;;;;;;;1.52;0.70;;;9.30;99.90;;;;;;4829084;29;20189;-87
2023/11/02 05:39:05;;;;;;;3.55;1.17;;;9.40;99.90;;;;;;4829189;29;20284;-87
2023/11/02 05:41:31;;;;;;;4.65;1.08;;;9.40;99.90;;;;;;4827794;29;20192;-86
2023/11/02 05:43:57;;;;;;;2.22;0.70;;;9.40;99.90;;;;;;4826995;29;20196;-88
2023/11/02 05:46:23;;;;;;;1.92;0.80;;;9.40;99.90;;;;;;4828368;29;20678;-86
2023/11/02 05:48:51;;;;;;;4.28;1.13;;;9.40;99.90;;;;;;4828820;29;20273;-86
2023/11/02 05:51:17;;;;;;;1.95;0.90;;;9.40;99.90;;;;;;4828825;29;20221;-86
2023/11/02 05:53:42;;;;;;;2.67;0.90;;;9.40;99.90;;;;;;4828602;29;20212;-85
2023/11/02 05:56:08;;;;;;;7.53;0.93;;;9.40;99.90;;;;;;4828731;29;20242;-87
2023/11/02 05:58:35;;;;;;;1.90;1.10;;;9.40;99.90;;;;;;4828003;29;20217;-88
2023/11/02 06:01:01;;;;;;;6.07;0.88;;;9.40;99.90;;;;;;4828642;29;20197;-88
2023/11/02 06:03:29;;;;;;;1.70;0.80;;;9.40;99.90;;;;;;4828603;29;20197;-87
2023/11/02 06:05:54;;;;;;;3.53;1.00;;;9.40;99.90;;;;;;4828439;29;20621;-87
2023/11/02 06:08:20;;;;;;;1.00;0.82;;;9.40;99.90;;;;;;4828483;29;20199;-86
2023/11/02 06:10:47;;;;;;;2.20;0.93;;;9.40;99.90;;;;;;4828515;29;20201;-87
2023/11/02 06:13:13;;;;;;;2.35;0.80;;;9.40;99.90;;;;;;4828575;29;20196;-87
2023/11/02 06:15:38;;;;;;;1.65;0.75;;;9.40;99.90;;;;;;4828661;29;20204;-86
2023/11/02 06:18:05;;;;;;;2.22;1.00;;;9.40;99.90;;;;;;4827996;29;20221;-86
2023/11/02 06:20:32;;;;;;;3.50;0.95;;;9.40;99.90;;;;;;4828685;29;20196;-86
2023/11/02 06:22:57;;;;;;;2.83;0.70;;;9.40;99.90;;;;;;4844062;29;20251;-86
2023/11/02 06:25:24;;;;;;;2.47;0.60;;;9.40;99.90;;;;;;4844577;29;20653;-85
2023/11/02 06:27:50;;;;;;;5.90;0.73;;;9.40;99.90;;;;;;4828076;29;20193;-87
2023/11/02 06:30:17;;;;;;;4.07;0.90;;;9.40;99.90;;;;;;4828138;29;20200;-87
2023/11/02 06:32:43;;;;;;;2.45;0.80;;;9.40;99.90;;;;;;4828040;29;20197;-87
2023/11/02 06:35:09;;;;;;;0.93;0.63;;;9.40;99.90;;;;;;4828295;29;20583;-86
2023/11/02 06:37:58;;;;;;;2.05;1.00;;;9.50;99.90;;;;;;4828095;29;20209;-86
2023/11/02 06:40:26;;;;;;;1.13;0.63;;;9.50;99.90;;;;;;4822973;29;20245;-86
2023/11/02 06:42:54;;;;;;;1.63;0.70;;;9.50;99.90;;;;;;4844010;29;20186;-87
2023/11/02 06:45:20;;;;;;;3.20;0.88;;;9.60;99.90;;;;;;4828075;29;20717;-88
2023/11/02 06:47:46;;;;;;;1.67;0.68;;;9.70;99.90;;;;;;4824034;29;20245;-86
2023/11/02 06:50:13;;;;;;;1.75;0.73;;;9.80;99.90;;;;;;4824990;29;20201;-84
2023/11/02 06:52:38;;;;;;;3.05;0.82;;;9.90;99.90;;;;;;4824865;29;20201;-85
2023/11/02 06:55:05;;;;;;;4.47;0.80;;;10.00;99.90;;;;;;4824803;29;20194;-85
2023/11/02 06:57:31;;;;;;;6.93;1.10;;;10.10;99.90;;;;;;4824643;29;20677;-83
2023/11/02 06:59:56;;;;;;;2.28;0.70;;;10.10;99.90;;;;;;4824558;29;20194;-86
2023/11/02 07:02:23;;;;;;;3.90;0.80;;;10.10;99.90;;;;;;4826069;29;20193;-86
2023/11/02 07:04:51;;;;;;;9.05;1.00;;;10.10;99.90;;;;;;4824518;29;20194;-85
2023/11/02 07:07:17;;;;;;;2.47;0.63;;;10.20;99.90;;;;;;4824616;29;20200;-87
2023/11/02 07:09:44;;;;;;;1.70;0.70;;;10.20;99.90;;;;;;4824583;29;20194;-88
2023/11/02 07:12:14;;;;;;;2.25;0.80;;;10.20;99.90;;;;;;4824631;29;20276;-88
2023/11/02 07:14:41;;;;;;;2.75;0.80;;;10.30;99.90;;;;;;4824480;29;20238;-89
2023/11/02 07:17:07;;;;;;;4.68;1.08;;;10.30;99.90;;;;;;4816631;29;20200;-86
2023/11/02 07:19:33;;;;;;;2.22;0.68;;;10.30;99.90;;;;;;4824705;29;20194;-88
2023/11/02 07:21:59;;;;;;;1.38;0.60;;;10.30;99.90;;;;;;4824333;29;20193;-87
2023/11/02 07:24:26;;;;;;;2.75;0.70;;;10.30;99.90;;;;;;4824596;29;20537;-87
2023/11/02 07:26:52;;;;;;;3.13;0.73;;;10.30;99.90;;;;;;4824441;29;20197;-86
2023/11/02 07:29:25;;;;;;;2.08;0.55;;;10.30;99.90;;;;;;4825777;29;20259;-88
2023/11/02 07:31:51;;;;;;;1.50;0.88;;;10.30;99.90;;;;;;4824304;29;20194;-87
2023/11/02 07:34:18;;;;;;;3.10;0.90;;;10.30;99.90;;;;;;4826655;29;20194;-87
2023/11/02 07:36:43;;;;;;;4.63;0.85;;;10.40;99.90;;;;;;4828067;29;20190;-88
2023/11/02 07:39:09;;;;;;;2.15;0.70;;;10.40;99.90;;;;;;4827962;29;20225;-87
2023/11/02 07:41:37;;;;;;;1.98;0.70;;;10.40;99.90;;;;;;4828993;29;20242;-88
2023/11/02 07:44:03;;;;;;;1.42;0.80;;;10.40;99.90;;;;;;4827733;29;20511;-84
2023/11/02 07:46:29;;;;;;;2.38;0.90;;;10.40;99.90;;;;;;4827007;29;20234;-87
2023/11/02 07:48:54;;;;;;;3.38;0.85;;;10.40;99.90;;;;;;4827138;29;20202;-84
2023/11/02 07:51:22;;;;;;;3.40;0.77;;;10.40;99.90;;;;;;4827401;29;20198;-86
2023/11/02 07:53:48;;;;;;;2.53;0.80;;;10.50;99.90;;;;;;4827226;29;20211;-85
2023/11/02 07:56:14;;;;;;;3.10;0.98;;;10.40;99.90;;;;;;4827413;29;20200;-88
2023/11/02 07:58:42;;;;;;;3.20;0.98;;;10.40;99.90;;;;;;4827457;29;20661;-85
2023/11/02 08:01:09;;;;;;;6.32;1.08;;;10.50;99.90;;;;;;4827460;29;20190;-86
2023/11/02 08:03:35;;;;;;;3.72;0.88;;;10.40;99.90;;;;;;4827081;29;20201;-86
2023/11/02 08:06:01;;;;;;;2.72;1.10;;;10.50;99.90;;;;;;4827153;29;20247;-83
2023/11/02 08:08:27;;;;;;;10.70;1.23;;;10.50;99.90;;;;;;4827140;29;20526;-85
2023/11/02 08:10:52;;;;;;;2.65;1.02;;;10.50;99.90;;;;;;4828215;29;20189;-84
2023/11/02 08:13:18;;;;;;;4.70;0.90;;;10.50;99.90;;;;;;4827155;29;20198;-85
2023/11/02 08:15:44;;;;;;;2.60;0.77;;;10.50;99.90;;;;;;4827274;29;20591;-85
2023/11/02 08:18:11;;;;;;;2.15;0.70;;;10.50;99.90;;;;;;4827238;29;20221;-87
2023/11/02 08:20:37;;;;;;;1.95;0.82;;;10.50;99.90;;;;;;4827326;29;20334;-84
2023/11/02 08:23:02;;;;;;;5.43;1.05;;;10.50;99.90;;;;;;4826938;29;20652;-89
2023/11/02 08:25:28;;;;;;;3.33;0.93;;;10.50;99.90;;;;;;4823584;29;20577;-84
2023/11/02 08:27:57;;;;;;;2.55;0.85;;;10.50;99.90;;;;;;4826888;29;20194;-86
2023/11/02 08:30:33;;;;;;;2.05;0.70;;;10.50;99.90;;;;;;4827081;29;20284;-88
2023/11/02 08:32:58;;;;;;;2.80;0.82;;;10.60;99.90;;;;;;4826735;29;20221;-89
2023/11/02 08:35:24;;;;;;;4.70;1.00;;;10.60;99.90;;;;;;4826540;29;20289;-83
2023/11/02 08:37:51;;;;;;;2.97;1.00;;;10.60;99.90;;;;;;4827642;29;20217;-85
2023/11/02 08:40:18;;;;;;;3.88;0.90;;;10.70;99.90;;;;;;4826798;29;20506;-86
2023/11/02 08:42:48;;;;;;;3.03;0.80;;;10.70;99.90;;;;;;4826716;29;20198;-84
2023/11/02 08:45:15;;;;;;;2.78;0.80;;;10.70;99.90;;;;;;4826462;29;20186;-89
2023/11/02 08:47:42;;;;;;;2.65;0.90;;;10.70;99.90;;;;;;4826157;29;20304;-83
2023/11/02 08:50:10;;;;;;;4.25;0.85;;;10.70;99.90;;;;;;4826548;29;20638;-86
2023/11/02 08:52:36;;;;;;;5.07;0.85;;;10.80;99.90;;;;;;4827174;29;20254;-89
2023/11/02 08:55:03;;;;;;;2.40;0.98;;;10.80;99.90;;;;;;4826649;29;20201;-85
2023/11/02 08:57:29;;;;;;;5.15;0.90;;;10.80;99.90;;;;;;4826385;29;20270;-85
2023/11/02 08:59:56;;;;;;;2.00;0.68;;;10.80;99.90;;;;;;4826459;29;20194;-91
2023/11/02 09:02:22;;;;;;;1.67;0.88;;;10.90;99.90;;;;;;4826362;29;20197;-88
2023/11/02 09:04:48;;;;;;;2.08;0.50;;;10.90;99.90;;;;;;4826212;29;20194;-89
2023/11/02 09:07:14;;;;;;;2.25;0.88;;;11.00;99.90;;;;;;4826464;29;20197;-84
2023/11/02 09:09:39;;;;;;;2.70;0.90;;;11.00;99.90;;;;;;4826497;29;20292;-84
2023/11/02 09:12:05;;;;;;;3.10;0.77;;;10.90;99.90;;;;;;4826432;29;20228;-83
2023/11/02 09:14:31;;;;;;;2.80;1.02;;;10.90;99.90;;;;;;4826554;29;20194;-88
2023/11/02 09:16:57;;;;;;;2.05;0.73;;;10.90;99.90;;;;;;4826062;29;20186;-84
2023/11/02 09:19:23;;;;;;;1.35;0.50;;;10.90;99.90;;;;;;4826393;29;20216;-84
2023/11/02 09:21:54;;;;;;;2.88;0.70;;;10.90;99.90;;;;;;4826227;29;20190;-87
2023/11/02 09:24:20;;;;;;;2.70;0.80;;;10.90;99.90;;;;;;4827509;29;20649;-90
2023/11/02 09:26:46;;;;;;;7.10;1.00;;;10.90;99.90;;;;;;4826052;29;20190;-88
2023/11/02 09:29:11;;;;;;;1.90;0.80;;;10.90;99.90;;;;;;4827354;29;20280;-87
2023/11/02 09:31:37;;;;;;;1.45;0.75;;;10.90;99.90;;;;;;4825757;29;20220;-85
2023/11/02 09:34:04;;;;;;;3.58;0.80;;;11.00;99.90;;;;;;4825841;29;20385;-86
2023/11/02 09:36:30;;;;;;;1.75;0.70;;;11.00;99.90;;;;;;4827442;29;20194;-89
2023/11/02 09:39:00;;;;;;;3.58;0.90;;;11.00;99.90;;;;;;4826177;29;20234;-90
2023/11/02 09:41:31;;;;;;;2.50;0.63;;;11.00;99.90;;;;;;4827358;29;20269;-91
2023/11/02 09:43:57;;;;;;;2.15;0.80;;;11.00;99.90;;;;;;4827100;29;20205;-89
2023/11/02 09:46:23;;;;;;;2.30;0.60;;;11.00;99.90;;;;;;4825955;29;20788;-86
2023/11/02 09:48:50;;;;;;;1.73;0.90;;;11.10;99.90;;;;;;4825727;29;20558;-90
2023/11/02 09:51:17;;;;;;;2.30;0.80;;;11.10;99.90;;;;;;4825975;29;20328;-92
2023/11/02 09:53:43;;;;;;;2.50;0.85;;;11.10;99.90;;;;;;4826105;29;20629;-87
2023/11/02 09:56:09;;;;;;;2.50;0.60;;;11.20;99.90;;;;;;4825688;29;20243;-90
2023/11/02 09:58:36;;;;;;;1.42;0.68;;;11.20;99.90;;;;;;4825129;29;20222;-89
2023/11/02 10:01:08;;;;;;;2.95;0.98;;;11.20;99.90;;;;;;4825812;29;20258;-92
2023/11/02 10:03:33;;;;;;;0.98;0.60;;;11.30;99.90;;;;;;4825719;29;20194;-89
2023/11/02 10:05:59;;;;;;;5.85;0.85;;;11.30;99.90;;;;;;4823775;29;20193;-91
2023/11/02 10:08:25;;;;;;;1.65;0.60;;;11.30;99.90;;;;;;4814950;29;20281;-90
2023/11/02 10:11:16;;;;;;;1.52;0.60;;;11.30;99.90;;;;;;4823831;29;20190;-91
2023/11/02 10:13:49;;;;;;;2.28;0.70;;;11.30;99.90;;;;;;4825868;29;20354;-89
2023/11/02 10:16:24;;;;;;;5.40;0.95;;;11.30;99.90;;;;;;4825538;29;20205;-89
2023/11/02 10:18:50;;;;;;;1.95;0.60;;;11.30;99.90;;;;;;4824185;29;20209;-93
2023/11/02 10:21:24;;;;;;;4.53;0.70;;;11.30;99.90;;;;;;4825598;29;20225;-88
2023/11/02 10:23:55;;;;;;;1.58;0.70;;;11.30;99.90;;;;;;4825779;29;20205;-91
2023/11/02 10:26:21;;;;;;;4.00;1.50;;;11.30;99.90;;;;;;4825843;29;20193;-90
2023/11/02 10:28:48;;;;;;;1.92;0.88;;;11.30;99.90;;;;;;4825515;29;20186;-89
2023/11/02 10:31:20;;;;;;;1.73;0.80;;;11.30;99.90;;;;;;4825445;29;20267;-91
2023/11/02 10:33:49;;;;;;;2.63;0.80;;;11.40;99.90;;;;;;4825051;29;20190;-86
2023/11/02 10:36:16;;;;;;;4.45;0.70;;;11.50;99.90;;;;;;4825199;29;20289;-89
2023/11/02 10:38:44;;;;;;;2.50;0.60;;;11.50;99.90;;;;;;4818827;29;20654;-87
2023/11/02 10:41:17;;;;;;;2.88;0.77;;;11.60;99.90;;;;;;4825061;29;20629;-83
2023/11/02 10:43:48;;;;;;;1.27;0.70;;;11.70;99.90;;;;;;4827207;29;20209;-86
2023/11/02 10:46:15;;;;;;;1.10;0.60;;;11.70;99.90;;;;;;4817538;29;20317;-88
2023/11/02 10:48:42;;;;;;;3.08;0.70;;;11.90;99.90;;;;;;4817421;29;20280;-90
2023/11/02 10:51:23;;;;;;;1.67;0.68;;;11.90;99.90;;;;;;4817804;29;20197;-89
2023/11/02 10:54:23;;;;;;;2.17;1.02;;;11.90;99.90;;;;;;4825394;29;20210;-90
2023/11/02 10:57:00;;;;;;;1.25;0.90;;;11.90;99.90;;;;;;4825001;29;20196;-91
2023/11/02 10:59:27;;;;;;;0.80;0.45;;;11.90;99.90;;;;;;4826283;29;20270;-88
2023/11/02 11:02:00;;;;;;;2.70;0.75;;;11.90;99.90;;;;;;4826223;29;20198;-89
2023/11/02 11:04:28;;;;;;;2.10;0.65;;;11.80;99.90;;;;;;4826035;29;20296;-89
2023/11/02 11:06:55;;;;;;;5.20;1.00;;;11.70;99.90;;;;;;4824957;29;20189;-88
2023/11/02 11:09:29;;;;;;;2.53;0.68;;;11.70;99.90;;;;;;4827274;29;20198;-87
2023/11/02 11:12:00;;;;;;;2.05;0.55;;;11.70;99.90;;;;;;4828418;29;20284;-91
2023/11/02 11:14:28;;;;;;;3.15;0.80;;;11.70;99.90;;;;;;4821209;29;20190;-89
2023/11/02 11:16:56;;;;;;;1.02;0.60;;;11.60;99.90;;;;;;4828045;29;20248;-90
2023/11/02 11:19:23;;;;;;;2.70;0.70;;;11.60;99.90;;;;;;4820881;29;20205;-89
2023/11/02 11:21:54;;;;;;;2.30;0.70;;;11.60;99.90;;;;;;4828348;29;20250;-88
2023/11/02 11:24:22;;;;;;;3.00;0.80;;;11.60;99.90;;;;;;4828342;29;20194;-87
2023/11/02 11:26:55;;;;;;;1.90;0.63;;;11.70;99.90;;;;;;4828294;29;20190;-87
2023/11/02 11:29:41;;;;;;;3.70;0.60;;;11.70;99.90;;;;;;4821537;29;20196;-90
2023/11/02 11:32:44;;;;;;;1.42;0.47;;;11.70;99.90;;;;;;4828053;29;20193;-92
2023/11/02 11:35:13;;;;;;;2.10;0.80;;;11.80;99.90;;;;;;4820994;29;20193;-92
2023/11/02 11:40:20;;;;;;;4.05;0.88;;;11.90;99.90;;;;;;4823786;29;20194;-89
2023/11/02 11:42:52;;;;;;;3.17;0.77;;;12.00;99.90;;;;;;4819988;29;20194;-86
2023/11/02 11:45:26;;;;;;;4.28;0.60;;;12.00;99.90;;;;;;4824785;29;20285;-89
2023/11/02 11:47:53;;;;;;;1.10;0.60;;;11.90;99.90;;;;;;4836075;29;20234;-89
2023/11/02 11:50:39;;;;;;;2.42;0.70;;;11.90;99.90;;;;;;4847273;29;20189;-90
2023/11/02 11:53:19;;;;;;;2.67;0.70;;;11.90;99.90;;;;;;4830767;29;20227;-90
2023/11/02 11:55:50;;;;;;;2.08;0.80;;;11.90;99.90;;;;;;4846927;29;20191;-88
2023/11/02 11:58:19;;;;;;;2.17;0.63;;;11.80;99.90;;;;;;4824147;29;20733;-87
2023/11/02 12:00:51;;;;;;;3.58;0.82;;;11.90;99.90;;;;;;4815746;29;20276;-87
2023/11/02 12:03:39;;;;;;;1.88;0.60;;;11.80;99.90;;;;;;4830655;29;20189;-87
2023/11/02 12:06:12;;;;;;;2.95;0.57;;;11.90;99.90;;;;;;4830731;29;20185;-89
2023/11/02 12:08:50;;;;;;;3.42;0.90;;;11.90;99.90;;;;;;4846974;29;20214;-89
2023/11/02 12:11:25;;;;;;;1.40;0.52;;;12.00;99.90;;;;;;4824146;29;20576;-88
2023/11/02 12:14:14;;;;;;;1.73;0.60;;;12.10;99.90;;;;;;4822903;29;20189;-88
2023/11/02 12:16:41;;;;;;;0.75;0.50;;;12.30;99.90;;;;;;4823110;29;20201;-88
2023/11/02 12:19:07;;;;;;;0.52;0.43;;;12.50;99.90;;;;;;4822433;29;20228;-88
2023/11/02 12:21:33;;;;;;;1.13;0.50;;;12.80;99.90;;;;;;4821787;29;20185;-87
2023/11/02 12:24:01;;;;;;;0.50;0.30;;;12.90;99.90;;;;;;4822613;29;20193;-90
2023/11/02 12:26:29;;;;;;;0.82;0.40;;;13.10;99.90;;;;;;4822807;29;20219;-87
2023/11/02 12:28:57;;;;;;;2.35;0.63;;;13.20;99.90;;;;;;4821318;29;20285;-85
2023/11/02 12:31:27;;;;;;;2.70;0.45;;;13.20;99.90;;;;;;4819569;29;20196;-85
2023/11/02 12:33:54;;;;;;;1.02;0.45;;;13.30;99.90;;;;;;4820230;29;20190;-82
2023/11/02 12:36:23;;;;;;;3.63;0.50;;;13.30;99.90;;;;;;4846720;29;20557;-90
2023/11/02 12:38:50;;;;;;;1.60;0.38;;;13.30;99.90;;;;;;4830125;29;20221;-82
2023/11/02 12:41:26;;;;;;;1.40;0.60;;;13.30;99.90;;;;;;4823163;29;20197;-94
2023/11/02 12:44:08;;;;;;;1.80;0.40;;;13.20;99.90;;;;;;4821617;29;20624;-89
2023/11/02 12:46:42;;;;;;;0.80;0.50;;;13.10;99.90;;;;;;4825334;29;20237;-90
2023/11/02 12:49:18;;;;;;;1.67;0.55;;;13.10;99.90;;;;;;4830078;29;20275;-93
2023/11/02 12:51:49;;;;;;;1.20;0.50;;;13.20;99.90;;;;;;4846469;29;20197;-93
2023/11/02 12:54:26;;;;;;;0.95;0.50;;;13.20;99.90;;;;;;4846082;29;20242;-92
2023/11/02 12:56:55;;;;;;;2.42;0.40;;;13.30;99.90;;;;;;4830000;29;20193;-89
2023/11/02 12:59:26;;;;;;;4.35;0.70;;;13.20;99.90;;;;;;4846284;29;20550;-89
2023/11/02 13:01:59;;;;;;;2.83;0.80;;;13.20;99.90;;;;;;4829866;29;20207;-90
2023/11/02 13:04:47;;;;;;;1.40;0.35;;;13.20;99.90;;;;;;4829642;29;20215;-91
2023/11/02 13:07:28;;;;;;;1.45;0.60;;;13.10;99.90;;;;;;4829893;29;20193;-93
2023/11/02 13:10:06;;;;;;;1.02;0.30;;;13.10;99.90;;;;;;4830280;29;20534;-92
2023/11/02 13:12:34;;;;;;;0.90;0.50;;;13.20;99.90;;;;;;4830180;29;20189;-91
2023/11/02 13:15:09;;;;;;;2.25;0.47;;;13.20;99.90;;;;;;4829608;29;20277;-89